createdAt,value
2018-09-29T00:00:15.182Z,14.33
2018-09-29T00:02:43.580Z,11.10
2018-09-29T00:05:11.986Z,15.57
2018-09-29T00:07:40.381Z,11.80
2018-09-29T00:10:08.820Z,8.97
2018-09-29T00:12:37.326Z,12.83
2018-09-29T00:15:06.364Z,14.03
2018-09-29T00:17:34.801Z,16.27
2018-09-29T00:20:03.326Z,15.07
2018-09-29T00:22:31.747Z,13.77
2018-09-29T00:25:00.226Z,13.17
2018-09-29T00:27:28.613Z,8.97
2018-09-29T00:29:57.041Z,9.00
2018-09-29T00:32:25.441Z,10.03
2018-09-29T00:34:53.842Z,9.80
2018-09-29T00:37:22.241Z,7.47
2018-09-29T00:39:50.690Z,8.30
2018-09-29T00:42:19.095Z,8.93
2018-09-29T00:44:47.526Z,9.57
2018-09-29T00:47:15.911Z,10.37
2018-09-29T00:49:44.338Z,8.67
2018-09-29T00:52:12.749Z,12.00
2018-09-29T00:54:41.317Z,9.70
2018-09-29T00:57:09.709Z,10.07
2018-09-29T00:59:38.122Z,7.73
2018-09-29T01:02:06.566Z,10.53
2018-09-29T01:04:35.001Z,11.03
2018-09-29T01:07:03.543Z,8.73
2018-09-29T01:09:32.023Z,10.10
2018-09-29T01:12:00.497Z,10.33
2018-09-29T01:14:28.934Z,8.57
2018-09-29T01:16:57.327Z,10.63
2018-09-29T01:19:26.045Z,13.00
2018-09-29T01:21:54.464Z,12.73
2018-09-29T01:24:22.877Z,9.30
2018-09-29T01:26:51.303Z,8.57
2018-09-29T01:29:19.703Z,12.27
2018-09-29T01:31:48.110Z,11.87
2018-09-29T01:34:16.590Z,8.97
2018-09-29T01:36:45.012Z,13.30
2018-09-29T01:39:13.458Z,7.67
2018-09-29T01:41:41.869Z,10.57
2018-09-29T01:44:10.507Z,8.00
2018-09-29T01:46:39.080Z,7.20
2018-09-29T01:49:07.469Z,7.50
2018-09-29T01:51:35.861Z,6.63
2018-09-29T01:54:04.241Z,7.63
2018-09-29T01:56:32.717Z,7.17
2018-09-29T01:59:01.269Z,10.43
2018-09-29T02:01:29.688Z,9.97
2018-09-29T02:03:58.084Z,6.50
2018-09-29T02:06:26.493Z,9.97
2018-09-29T02:08:54.904Z,7.90
2018-09-29T02:11:23.301Z,12.47
2018-09-29T02:13:51.813Z,8.37
2018-09-29T02:16:20.226Z,9.43
2018-09-29T02:18:48.716Z,9.10
2018-09-29T02:21:17.112Z,10.20
2018-09-29T02:23:45.475Z,9.20
2018-09-29T02:26:13.912Z,8.10
2018-09-29T02:28:42.290Z,8.90
2018-09-29T02:31:10.697Z,8.37
2018-09-29T02:33:39.062Z,11.33
2018-09-29T02:36:07.479Z,7.67
2018-09-29T02:38:35.846Z,7.60
2018-09-29T02:41:04.242Z,12.00
2018-09-29T02:43:32.602Z,8.90
2018-09-29T02:46:00.986Z,9.20
2018-09-29T02:48:29.426Z,10.43
2018-09-29T02:50:57.844Z,10.43
2018-09-29T02:53:26.211Z,9.07
2018-09-29T02:55:54.637Z,9.30
2018-09-29T02:58:23.011Z,11.33
2018-09-29T03:00:51.557Z,11.47
2018-09-29T03:03:19.945Z,14.37
2018-09-29T03:05:48.344Z,8.10
2018-09-29T03:08:16.758Z,10.50
2018-09-29T03:10:45.170Z,8.97
2018-09-29T03:13:13.625Z,8.87
2018-09-29T03:15:42.033Z,9.43
2018-09-29T03:18:10.409Z,7.67
2018-09-29T03:20:38.827Z,6.67
2018-09-29T03:23:07.321Z,8.90
2018-09-29T03:25:35.674Z,11.60
2018-09-29T03:28:04.074Z,8.20
2018-09-29T03:30:32.498Z,7.53
2018-09-29T03:33:00.895Z,7.20
2018-09-29T03:35:29.351Z,8.53
2018-09-29T03:37:57.727Z,8.43
2018-09-29T03:40:26.190Z,9.93
2018-09-29T03:42:54.722Z,6.87
2018-09-29T03:45:23.105Z,7.70
2018-09-29T03:47:51.489Z,9.53
2018-09-29T03:50:19.890Z,7.67
2018-09-29T03:52:48.321Z,6.57
2018-09-29T03:55:16.721Z,5.77
2018-09-29T03:57:45.161Z,7.13
2018-09-29T04:00:13.586Z,6.17
2018-09-29T04:02:42.005Z,6.63
2018-09-29T04:05:10.417Z,8.37
2018-09-29T04:07:38.840Z,7.33
2018-09-29T04:10:07.293Z,5.30
2018-09-29T04:12:35.760Z,6.20
2018-09-29T04:15:04.278Z,7.03
2018-09-29T04:17:32.684Z,4.93
2018-09-29T04:20:01.075Z,4.83
2018-09-29T04:22:29.489Z,6.13
2018-09-29T04:24:58.000Z,4.77
2018-09-29T04:27:26.404Z,5.90
2018-09-29T04:29:54.886Z,5.83
2018-09-29T04:32:23.285Z,8.73
2018-09-29T04:34:51.691Z,5.63
2018-09-29T04:37:20.085Z,6.20
2018-09-29T04:39:48.451Z,7.13
2018-09-29T04:42:16.947Z,10.77
2018-09-29T04:44:45.290Z,10.30
2018-09-29T04:47:13.697Z,9.57
2018-09-29T04:49:42.085Z,8.00
2018-09-29T04:52:10.558Z,10.43
2018-09-29T04:54:38.989Z,9.70
2018-09-29T04:57:07.478Z,12.67
2018-09-29T04:59:35.878Z,9.83
2018-09-29T05:02:04.329Z,8.97
2018-09-29T05:04:32.729Z,7.03
2018-09-29T05:07:01.199Z,10.13
2018-09-29T05:09:29.633Z,7.93
2018-09-29T05:11:58.045Z,7.43
2018-09-29T05:14:26.511Z,10.50
2018-09-29T05:16:54.957Z,6.20
2018-09-29T05:19:23.333Z,5.47
2018-09-29T05:21:51.767Z,5.70
2018-09-29T05:24:20.146Z,6.10
2018-09-29T05:26:48.555Z,7.70
2018-09-29T05:29:16.984Z,5.17
2018-09-29T05:31:45.393Z,7.47
2018-09-29T05:34:13.773Z,6.53
2018-09-29T05:36:42.255Z,5.63
2018-09-29T05:39:10.742Z,5.10
2018-09-29T05:41:39.141Z,5.93
2018-09-29T05:44:07.522Z,7.17
2018-09-29T05:46:35.949Z,6.27
2018-09-29T05:49:04.354Z,4.57
2018-09-29T05:51:32.880Z,5.90
2018-09-29T05:54:01.368Z,6.60
2018-09-29T05:56:29.686Z,6.27
2018-09-29T05:58:58.145Z,5.67
2018-09-29T06:01:26.537Z,5.87
2018-09-29T06:03:54.988Z,7.13
2018-09-29T06:06:23.364Z,6.90
2018-09-29T06:08:51.806Z,5.63
2018-09-29T06:11:20.196Z,6.07
2018-09-29T06:13:48.638Z,5.50
2018-09-29T06:16:16.987Z,7.83
2018-09-29T06:18:45.425Z,12.50
2018-09-29T06:21:13.838Z,6.13
2018-09-29T06:23:42.282Z,10.63
2018-09-29T06:26:10.769Z,8.80
2018-09-29T06:28:39.186Z,7.60
2018-09-29T06:31:07.572Z,5.60
2018-09-29T06:33:35.978Z,8.50
2018-09-29T06:36:04.374Z,9.93
2018-09-29T06:38:32.773Z,7.83
2018-09-29T06:41:01.165Z,6.50
2018-09-29T06:43:29.591Z,6.43
2018-09-29T06:45:57.992Z,6.83
2018-09-29T06:48:26.378Z,5.70
2018-09-29T06:50:54.802Z,6.97
2018-09-29T06:53:23.241Z,6.93
2018-09-29T06:55:52.175Z,6.80
2018-09-29T06:58:20.567Z,8.67
2018-09-29T07:00:49.722Z,5.97
2018-09-29T07:03:18.209Z,8.17
2018-09-29T07:05:46.647Z,8.00
2018-09-29T07:08:15.081Z,7.27
2018-09-29T07:10:43.528Z,9.93
2018-09-29T07:13:11.929Z,7.60
2018-09-29T07:15:40.307Z,8.10
2018-09-29T07:18:09.147Z,16.77
2018-09-29T07:20:37.535Z,7.50
2018-09-29T07:23:06.966Z,10.17
2018-09-29T07:25:35.383Z,6.43
2018-09-29T07:28:03.929Z,9.53
2018-09-29T07:30:32.315Z,6.40
2018-09-29T07:33:00.837Z,8.37
2018-09-29T07:35:29.249Z,11.07
2018-09-29T07:37:58.699Z,10.77
2018-09-29T07:40:27.065Z,10.90
2018-09-29T07:42:55.590Z,11.37
2018-09-29T07:45:24.321Z,11.13
2018-09-29T07:47:52.714Z,9.87
2018-09-29T07:50:21.115Z,8.77
2018-09-29T07:52:49.557Z,7.83
2018-09-29T07:55:17.974Z,7.10
2018-09-29T07:57:46.445Z,11.23
2018-09-29T08:00:15.189Z,9.67
2018-09-29T08:02:43.681Z,12.97
2018-09-29T08:05:12.110Z,10.80
2018-09-29T08:07:40.566Z,8.37
2018-09-29T08:10:09.841Z,7.53
2018-09-29T08:12:38.482Z,9.20
2018-09-29T08:15:07.225Z,8.03
2018-09-29T08:17:36.084Z,11.50
2018-09-29T08:20:04.698Z,6.73
2018-09-29T08:22:33.161Z,7.80
2018-09-29T08:25:01.674Z,7.37
2018-09-29T08:27:30.190Z,8.13
2018-09-29T08:29:58.764Z,9.20
2018-09-29T08:32:27.401Z,9.47
2018-09-29T08:34:55.842Z,7.80
2018-09-29T08:37:24.301Z,7.87
2018-09-29T08:39:52.818Z,8.60
2018-09-29T08:42:21.250Z,7.83
2018-09-29T08:44:49.657Z,7.50
2018-09-29T08:47:18.055Z,12.80
2018-09-29T08:49:46.503Z,7.97
2018-09-29T08:52:14.973Z,8.70
2018-09-29T08:54:43.511Z,5.10
2018-09-29T08:57:11.957Z,6.47
2018-09-29T08:59:40.414Z,11.00
2018-09-29T09:02:08.962Z,7.37
2018-09-29T09:04:37.409Z,9.87
2018-09-29T09:07:06.351Z,8.53
2018-09-29T09:09:34.881Z,9.53
2018-09-29T09:12:03.242Z,8.50
2018-09-29T09:14:31.990Z,8.53
2018-09-29T09:17:00.502Z,9.43
2018-09-29T09:19:28.926Z,5.40
2018-09-29T09:21:57.499Z,4.87
2018-09-29T09:24:25.923Z,8.30
2018-09-29T09:26:54.429Z,6.37
2018-09-29T09:29:22.869Z,7.83
2018-09-29T09:31:51.273Z,8.60
2018-09-29T09:34:19.733Z,5.83
2018-09-29T09:36:48.194Z,7.33
2018-09-29T09:39:16.608Z,9.73
2018-09-29T09:41:45.301Z,5.37
2018-09-29T09:44:13.721Z,12.17
2018-09-29T09:46:42.121Z,7.43
2018-09-29T09:49:10.710Z,8.07
2018-09-29T09:51:39.166Z,5.90
2018-09-29T09:54:07.656Z,7.10
2018-09-29T09:56:36.118Z,5.43
2018-09-29T09:59:04.661Z,8.83
2018-09-29T10:01:40.425Z,4.33
2018-09-29T10:04:09.062Z,5.87
2018-09-29T10:06:37.485Z,4.00
2018-09-29T10:09:08.869Z,8.43
2018-09-29T10:11:37.395Z,6.53
2018-09-29T10:14:06.002Z,7.90
2018-09-29T10:16:34.970Z,8.37
2018-09-29T10:19:03.534Z,9.97
2018-09-29T10:21:31.981Z,6.83
2018-09-29T10:24:00.448Z,10.97
2018-09-29T10:26:28.862Z,5.97
2018-09-29T10:28:57.345Z,7.30
2018-09-29T10:31:25.884Z,5.90
2018-09-29T10:33:54.546Z,7.60
2018-09-29T10:36:23.154Z,10.10
2018-09-29T10:38:51.803Z,4.70
2018-09-29T10:41:20.485Z,5.23
2018-09-29T10:43:48.992Z,8.70
2018-09-29T10:46:17.401Z,6.70
2018-09-29T10:48:45.798Z,9.53
2018-09-29T10:51:14.247Z,5.30
2018-09-29T10:53:42.640Z,5.83
2018-09-29T10:56:11.045Z,6.90
2018-09-29T10:58:39.489Z,7.03
2018-09-29T11:01:07.913Z,9.60
2018-09-29T11:03:36.481Z,5.70
2018-09-29T11:06:04.956Z,8.07
2018-09-29T11:08:33.388Z,8.13
2018-09-29T11:11:01.878Z,7.97
2018-09-29T11:13:30.317Z,7.70
2018-09-29T11:15:58.857Z,7.33
2018-09-29T11:18:27.630Z,7.67
2018-09-29T11:20:56.116Z,5.80
2018-09-29T11:23:24.433Z,8.70
2018-09-29T11:25:52.845Z,7.43
2018-09-29T11:28:21.371Z,5.87
2018-09-29T11:30:49.804Z,6.03
2018-09-29T11:33:18.190Z,6.83
2018-09-29T11:35:46.705Z,6.17
2018-09-29T11:38:15.090Z,6.30
2018-09-29T11:40:43.522Z,6.80
2018-09-29T11:43:11.953Z,5.07
2018-09-29T11:45:40.378Z,8.20
2018-09-29T11:48:08.829Z,3.70
2018-09-29T11:50:37.288Z,6.57
2018-09-29T11:53:05.793Z,5.40
2018-09-29T11:55:34.254Z,5.97
2018-09-29T11:58:02.678Z,7.27
2018-09-29T12:00:31.109Z,4.10
2018-09-29T12:02:59.501Z,6.03
2018-09-29T12:05:27.911Z,4.40
2018-09-29T12:07:56.338Z,4.53
2018-09-29T12:10:24.718Z,5.23
2018-09-29T12:12:53.177Z,7.70
2018-09-29T12:15:21.619Z,3.03
2018-09-29T12:17:50.059Z,8.40
2018-09-29T12:20:18.502Z,8.70
2018-09-29T12:22:46.961Z,4.93
2018-09-29T12:25:15.390Z,6.50
2018-09-29T12:27:43.849Z,6.27
2018-09-29T12:30:14.327Z,4.50
2018-09-29T12:32:42.935Z,4.90
2018-09-29T12:35:11.423Z,6.63
2018-09-29T12:37:46.528Z,5.30
2018-09-29T12:43:06.795Z,5.57
2018-09-29T12:45:47.372Z,3.57
2018-09-29T12:48:37.693Z,5.10
2018-09-29T12:51:09.249Z,5.93
2018-09-29T12:53:38.089Z,4.80
2018-09-29T12:56:06.773Z,6.63
2018-09-29T12:58:35.190Z,4.23
2018-09-29T13:01:03.690Z,5.78
2018-09-29T13:03:32.087Z,5.43
2018-09-29T13:06:00.510Z,9.17
2018-09-29T13:08:28.929Z,6.47
2018-09-29T13:10:57.472Z,7.43
2018-09-29T13:13:25.855Z,5.40
2018-09-29T13:15:54.358Z,5.07
2018-09-29T13:18:22.780Z,6.67
2018-09-29T13:20:51.181Z,4.20
2018-09-29T13:23:19.607Z,6.10
2018-09-29T13:25:48.021Z,5.20
2018-09-29T13:28:16.536Z,6.80
2018-09-29T13:30:44.977Z,3.90
2018-09-29T13:33:13.429Z,4.30
2018-09-29T13:35:41.821Z,5.15
2018-09-29T13:38:10.271Z,4.17
2018-09-29T13:40:38.708Z,4.00
2018-09-29T13:43:07.185Z,5.62
2018-09-29T13:45:35.653Z,5.03
2018-09-29T13:48:04.119Z,6.12
2018-09-29T13:50:32.596Z,4.47
2018-09-29T13:53:01.026Z,6.45
2018-09-29T13:55:29.446Z,4.78
2018-09-29T13:57:57.907Z,4.15
2018-09-29T14:00:26.329Z,4.15
2018-09-29T14:02:54.805Z,5.10
2018-09-29T14:05:23.337Z,4.28
2018-09-29T14:07:51.746Z,3.70
2018-09-29T14:10:20.149Z,7.62
2018-09-29T14:12:48.625Z,4.45
2018-09-29T14:15:17.834Z,5.08
2018-09-29T14:17:46.302Z,4.50
2018-09-29T14:20:14.718Z,5.10
2018-09-29T14:22:43.130Z,3.20
2018-09-29T14:25:11.640Z,4.72
2018-09-29T14:27:40.055Z,4.20
2018-09-29T14:30:08.697Z,4.58
2018-09-29T14:32:37.172Z,3.85
2018-09-29T14:35:06.464Z,4.47
2018-09-29T14:37:34.947Z,6.05
2018-09-29T14:40:03.437Z,3.08
2018-09-29T14:42:31.876Z,4.10
2018-09-29T14:45:00.319Z,3.30
2018-09-29T14:47:28.742Z,5.05
2018-09-29T14:49:57.179Z,3.92
2018-09-29T14:52:25.774Z,3.83
2018-09-29T14:54:54.249Z,5.72
2018-09-29T14:57:22.753Z,5.53
2018-09-29T14:59:51.286Z,3.00
2018-09-29T15:02:19.729Z,1.92
2018-09-29T15:04:48.127Z,6.17
2018-09-29T15:07:16.594Z,3.43
2018-09-29T15:09:45.008Z,6.00
2018-09-29T15:12:13.498Z,3.67
2018-09-29T15:14:41.862Z,2.90
2018-09-29T15:17:10.279Z,4.13
2018-09-29T15:19:38.669Z,5.27
2018-09-29T15:22:07.097Z,4.37
2018-09-29T15:24:35.546Z,3.67
2018-09-29T15:27:03.973Z,6.53
2018-09-29T15:29:32.486Z,6.23
2018-09-29T15:32:01.005Z,5.20
2018-09-29T15:34:29.498Z,4.23
2018-09-29T15:36:57.907Z,3.67
2018-09-29T15:39:26.329Z,3.73
2018-09-29T15:41:54.770Z,4.73
2018-09-29T15:44:23.192Z,4.87
2018-09-29T15:46:51.585Z,3.87
2018-09-29T15:49:19.994Z,1.80
2018-09-29T15:51:48.398Z,3.80
2018-09-29T15:54:16.814Z,4.80
2018-09-29T15:56:45.205Z,4.30
2018-09-29T15:59:13.630Z,3.57
2018-09-29T16:01:42.097Z,4.97
2018-09-29T16:04:10.532Z,4.23
2018-09-29T16:06:39.174Z,3.10
2018-09-29T16:09:09.122Z,3.17
2018-09-29T16:11:37.623Z,3.03
2018-09-29T16:14:06.088Z,7.13
2018-09-29T16:16:34.767Z,3.10
2018-09-29T16:19:03.328Z,3.40
2018-09-29T16:21:31.775Z,6.03
2018-09-29T16:24:00.213Z,3.47
2018-09-29T16:26:28.670Z,4.80
2018-09-29T16:28:57.168Z,6.03
2018-09-29T16:31:25.677Z,5.57
2018-09-29T16:33:54.151Z,3.53
2018-09-29T16:36:22.544Z,2.93
2018-09-29T16:38:50.951Z,3.13
2018-09-29T16:41:19.382Z,2.70
2018-09-29T16:43:47.816Z,5.07
2018-09-29T16:46:16.302Z,5.23
2018-09-29T16:48:44.776Z,2.83
2018-09-29T16:51:13.246Z,2.20
2018-09-29T16:53:41.803Z,2.80
2018-09-29T16:56:10.359Z,3.47
2018-09-29T16:58:38.828Z,2.80
2018-09-29T17:01:07.549Z,5.07
2018-09-29T17:03:36.914Z,4.00
2018-09-29T17:06:05.930Z,2.00
2018-09-29T17:08:34.746Z,3.67
2018-09-29T17:11:03.264Z,5.80
2018-09-29T17:13:31.730Z,4.97
2018-09-29T17:16:00.202Z,5.87
2018-09-29T17:18:28.670Z,6.67
2018-09-29T17:20:57.137Z,5.67
2018-09-29T17:23:25.795Z,7.73
2018-09-29T17:25:54.274Z,4.80
2018-09-29T17:28:22.710Z,6.57
2018-09-29T17:30:51.702Z,5.53
2018-09-29T17:33:20.182Z,4.67
2018-09-29T17:35:48.727Z,4.77
2018-09-29T17:38:17.164Z,6.97
2018-09-29T17:40:45.573Z,3.37
2018-09-29T17:43:14.151Z,4.53
2018-09-29T17:45:42.671Z,8.87
2018-09-29T17:48:11.094Z,6.03
2018-09-29T17:50:39.542Z,5.30
2018-09-29T17:53:07.959Z,5.10
2018-09-29T17:55:36.425Z,4.27
2018-09-29T17:58:04.869Z,5.33
2018-09-29T18:00:33.308Z,3.93
2018-09-29T18:03:01.689Z,7.00
2018-09-29T18:05:30.151Z,6.90
2018-09-29T18:07:58.540Z,9.33
2018-09-29T18:10:26.936Z,6.77
2018-09-29T18:12:55.349Z,12.57
2018-09-29T18:15:24.327Z,6.50
2018-09-29T18:17:52.753Z,7.23
2018-09-29T18:20:21.356Z,8.70
2018-09-29T18:22:49.801Z,8.80
2018-09-29T18:25:18.261Z,6.90
2018-09-29T18:27:46.717Z,7.73
2018-09-29T18:30:15.135Z,7.00
2018-09-29T18:32:43.824Z,4.53
2018-09-29T18:35:12.297Z,3.67
2018-09-29T18:37:40.735Z,4.83
2018-09-29T18:40:09.201Z,5.13
2018-09-29T18:42:37.639Z,6.33
2018-09-29T18:45:06.222Z,5.13
2018-09-29T18:47:34.669Z,3.30
2018-09-29T18:50:03.102Z,4.33
2018-09-29T18:52:31.693Z,2.60
2018-09-29T18:55:00.142Z,7.83
2018-09-29T18:57:28.660Z,4.07
2018-09-29T18:59:57.213Z,3.27
2018-09-29T19:02:25.733Z,3.03
2018-09-29T19:04:54.243Z,3.27
2018-09-29T19:07:22.606Z,4.43
2018-09-29T19:09:51.074Z,5.33
2018-09-29T19:12:19.536Z,4.73
2018-09-29T19:14:47.966Z,4.67
2018-09-29T19:17:16.485Z,4.80
2018-09-29T19:19:44.914Z,3.67
2018-09-29T19:22:13.381Z,3.03
2018-09-29T19:24:42.777Z,3.27
2018-09-29T19:27:11.228Z,3.73
2018-09-29T19:29:39.662Z,4.33
2018-09-29T19:32:08.113Z,4.20
2018-09-29T19:34:36.609Z,3.60
2018-09-29T19:37:05.065Z,3.17
2018-09-29T19:39:33.639Z,3.60
2018-09-29T19:42:02.081Z,4.83
2018-09-29T19:44:30.620Z,4.80
2018-09-29T19:46:59.083Z,6.97
2018-09-29T19:49:27.531Z,7.73
2018-09-29T19:51:56.038Z,6.30
2018-09-29T19:54:24.456Z,8.43
2018-09-29T19:56:52.934Z,10.77
2018-09-29T19:59:21.381Z,8.60
2018-09-29T20:01:49.850Z,7.83
2018-09-29T20:04:18.491Z,6.00
2018-09-29T20:06:46.929Z,6.50
2018-09-29T20:09:15.401Z,8.97
2018-09-29T20:11:43.882Z,8.03
2018-09-29T20:14:12.290Z,6.97
2018-09-29T20:16:40.897Z,11.17
2018-09-29T20:19:09.318Z,8.03
2018-09-29T20:21:37.805Z,8.03
2018-09-29T20:24:06.324Z,6.90
2018-09-29T20:26:34.785Z,7.63
2018-09-29T20:29:03.234Z,4.83
2018-09-29T20:31:31.715Z,6.07
2018-09-29T20:34:00.209Z,5.97
2018-09-29T20:36:28.681Z,6.03
2018-09-29T20:38:57.168Z,5.03
2018-09-29T20:41:25.662Z,7.97
2018-09-29T20:43:54.070Z,6.03
2018-09-29T20:46:22.513Z,6.27
2018-09-29T20:48:50.918Z,6.20
2018-09-29T20:51:19.399Z,5.03
2018-09-29T20:53:47.811Z,7.53
2018-09-29T20:56:16.258Z,8.30
2018-09-29T20:58:44.733Z,5.17
2018-09-29T21:01:13.233Z,6.30
2018-09-29T21:03:41.742Z,11.97
2018-09-29T21:06:10.223Z,10.40
2018-09-29T21:08:38.678Z,8.43
2018-09-29T21:11:07.259Z,15.13
2018-09-29T21:13:35.762Z,8.40
2018-09-29T21:16:04.172Z,6.37
2018-09-29T21:18:32.815Z,6.83
2018-09-29T21:21:01.819Z,10.57
2018-09-29T21:23:30.528Z,7.13
2018-09-29T21:25:59.125Z,6.57
2018-09-29T21:28:27.506Z,9.77
2018-09-29T21:30:55.977Z,7.30
2018-09-29T21:33:24.411Z,7.67
2018-09-29T21:35:52.833Z,8.70
2018-09-29T21:38:21.221Z,8.17
2018-09-29T21:40:49.677Z,10.07
2018-09-29T21:43:18.197Z,7.77
2018-09-29T21:45:46.627Z,10.00
2018-09-29T21:48:15.084Z,7.20
2018-09-29T21:50:43.494Z,6.27
2018-09-29T21:53:11.935Z,8.43
2018-09-29T21:55:40.397Z,7.97
2018-09-29T21:58:08.798Z,6.93
2018-09-29T22:00:43.563Z,5.63
2018-09-29T22:03:13.076Z,7.20
2018-09-29T22:05:41.573Z,6.13
2018-09-29T22:08:09.989Z,4.93
2018-09-29T22:10:38.400Z,6.97
2018-09-29T22:13:06.881Z,5.23
2018-09-29T22:15:35.318Z,7.80
2018-09-29T22:18:03.901Z,5.60
2018-09-29T22:20:32.357Z,6.90
2018-09-29T22:23:00.918Z,5.53
2018-09-29T22:25:29.426Z,7.70
2018-09-29T22:27:57.936Z,6.97
2018-09-29T22:30:26.430Z,7.70
2018-09-29T22:32:54.937Z,5.37
2018-09-29T22:35:23.450Z,7.10
2018-09-29T22:37:51.992Z,8.13
2018-09-29T22:40:20.561Z,7.83
2018-09-29T22:42:49.057Z,5.23
2018-09-29T22:45:17.520Z,6.40
2018-09-29T22:47:46.024Z,7.17
2018-09-29T22:50:14.413Z,6.90
2018-09-29T22:52:42.841Z,7.23
2018-09-29T22:55:11.294Z,9.47
2018-09-29T22:57:39.739Z,6.57
2018-09-29T23:00:08.285Z,5.20
2018-09-29T23:02:36.695Z,5.50
2018-09-29T23:05:05.233Z,4.10
2018-09-29T23:07:33.749Z,4.50
2018-09-29T23:10:02.131Z,6.00
2018-09-29T23:12:30.637Z,5.93
2018-09-29T23:14:59.049Z,7.03
2018-09-29T23:17:27.460Z,7.77
2018-09-29T23:19:55.848Z,6.90
2018-09-29T23:22:24.312Z,4.13
2018-09-29T23:24:52.877Z,5.87
2018-09-29T23:27:21.340Z,7.23
2018-09-29T23:29:49.813Z,6.37
2018-09-29T23:32:18.349Z,7.70
2018-09-29T23:34:46.735Z,8.23
2018-09-29T23:37:15.290Z,6.70
2018-09-29T23:39:43.688Z,4.80
2018-09-29T23:42:12.134Z,9.43
2018-09-29T23:44:40.542Z,6.10
2018-09-29T23:47:09.299Z,7.03
2018-09-29T23:49:37.710Z,6.60
2018-09-29T23:52:06.165Z,5.90
2018-09-29T23:54:34.805Z,6.03
2018-09-29T23:57:03.278Z,7.63
2018-09-29T23:59:32.397Z,5.47
